sensor_id;sensor_type;location;lat;lon;timestamp;pressure;altitude;pressure_sealevel;temperature;humidity
77450;BME280;66536;53.150;18.172;2024-03-06T00:02:01;101799.66;;;4.87;96.90
77450;BME280;66536;53.150;18.172;2024-03-06T00:04:28;101801.20;;;4.87;96.79
77450;BME280;66536;53.150;18.172;2024-03-06T00:06:54;101803.53;;;4.87;96.83
77450;BME280;66536;53.150;18.172;2024-03-06T00:09:21;101805.50;;;4.88;97.00
77450;BME280;66536;53.150;18.172;2024-03-06T00:11:47;101814.19;;;4.89;97.13
77450;BME280;66536;53.150;18.172;2024-03-06T00:14:13;101820.85;;;4.91;97.08
77450;BME280;66536;53.150;18.172;2024-03-06T00:16:46;101816.66;;;4.92;97.23
77450;BME280;66536;53.150;18.172;2024-03-06T00:19:14;101817.34;;;4.94;97.19
77450;BME280;66536;53.150;18.172;2024-03-06T00:21:40;101822.13;;;4.95;96.93
77450;BME280;66536;53.150;18.172;2024-03-06T00:24:07;101819.16;;;4.96;97.14
77450;BME280;66536;53.150;18.172;2024-03-06T00:26:33;101821.20;;;4.96;96.98
77450;BME280;66536;53.150;18.172;2024-03-06T00:28:59;101825.10;;;4.96;97.09
77450;BME280;66536;53.150;18.172;2024-03-06T00:31:25;101825.26;;;4.96;97.02
77450;BME280;66536;53.150;18.172;2024-03-06T00:33:52;101829.39;;;4.96;96.97
77450;BME280;66536;53.150;18.172;2024-03-06T00:36:18;101825.73;;;4.97;97.07
77450;BME280;66536;53.150;18.172;2024-03-06T00:38:44;101824.36;;;4.99;97.09
77450;BME280;66536;53.150;18.172;2024-03-06T00:41:10;101825.39;;;5.00;97.07
77450;BME280;66536;53.150;18.172;2024-03-06T00:43:36;101829.70;;;5.00;96.87
77450;BME280;66536;53.150;18.172;2024-03-06T00:46:02;101829.30;;;4.99;96.74
77450;BME280;66536;53.150;18.172;2024-03-06T00:48:28;101832.64;;;5.00;96.89
77450;BME280;66536;53.150;18.172;2024-03-06T00:50:54;101838.34;;;5.01;96.93
77450;BME280;66536;53.150;18.172;2024-03-06T00:53:20;101836.17;;;5.02;96.96
77450;BME280;66536;53.150;18.172;2024-03-06T00:55:47;101841.30;;;5.04;96.96
77450;BME280;66536;53.150;18.172;2024-03-06T00:58:13;101838.77;;;5.05;96.99
77450;BME280;66536;53.150;18.172;2024-03-06T01:00:39;101838.54;;;5.06;96.75
77450;BME280;66536;53.150;18.172;2024-03-06T01:03:05;101839.50;;;5.07;96.67
77450;BME280;66536;53.150;18.172;2024-03-06T01:05:31;101843.23;;;5.05;96.61
77450;BME280;66536;53.150;18.172;2024-03-06T01:07:58;101848.04;;;5.04;96.62
77450;BME280;66536;53.150;18.172;2024-03-06T01:10:25;101853.73;;;5.03;96.65
77450;BME280;66536;53.150;18.172;2024-03-06T01:12:51;101855.55;;;5.04;96.70
77450;BME280;66536;53.150;18.172;2024-03-06T01:15:17;101859.10;;;5.04;96.82
77450;BME280;66536;53.150;18.172;2024-03-06T01:17:43;101860.59;;;5.03;96.52
77450;BME280;66536;53.150;18.172;2024-03-06T01:20:10;101861.02;;;5.02;96.49
77450;BME280;66536;53.150;18.172;2024-03-06T01:22:36;101861.70;;;5.02;96.66
77450;BME280;66536;53.150;18.172;2024-03-06T01:25:02;101863.84;;;5.01;96.55
77450;BME280;66536;53.150;18.172;2024-03-06T01:27:28;101865.12;;;5.02;96.57
77450;BME280;66536;53.150;18.172;2024-03-06T01:29:54;101862.86;;;5.02;96.69
77450;BME280;66536;53.150;18.172;2024-03-06T01:32:20;101863.88;;;5.02;96.58
77450;BME280;66536;53.150;18.172;2024-03-06T01:34:46;101865.88;;;5.01;96.71
77450;BME280;66536;53.150;18.172;2024-03-06T01:37:12;101867.13;;;5.01;96.72
77450;BME280;66536;53.150;18.172;2024-03-06T01:39:38;101866.34;;;5.00;96.84
77450;BME280;66536;53.150;18.172;2024-03-06T01:42:04;101864.17;;;4.98;96.80
77450;BME280;66536;53.150;18.172;2024-03-06T01:44:30;101870.14;;;4.96;96.90
77450;BME280;66536;53.150;18.172;2024-03-06T01:46:57;101868.34;;;4.93;96.91
77450;BME280;66536;53.150;18.172;2024-03-06T01:49:24;101869.59;;;4.90;97.13
77450;BME280;66536;53.150;18.172;2024-03-06T01:51:53;101869.25;;;4.89;97.09
77450;BME280;66536;53.150;18.172;2024-03-06T01:54:21;101871.70;;;4.88;97.30
77450;BME280;66536;53.150;18.172;2024-03-06T01:56:48;101872.73;;;4.88;97.50
77450;BME280;66536;53.150;18.172;2024-03-06T01:59:15;101872.13;;;4.89;97.72
77450;BME280;66536;53.150;18.172;2024-03-06T02:01:42;101867.62;;;4.90;97.55
77450;BME280;66536;53.150;18.172;2024-03-06T02:04:09;101868.45;;;4.88;97.60
77450;BME280;66536;53.150;18.172;2024-03-06T02:06:39;101865.83;;;4.85;97.60
77450;BME280;66536;53.150;18.172;2024-03-06T02:09:05;101872.44;;;4.82;97.62
77450;BME280;66536;53.150;18.172;2024-03-06T02:11:33;101875.35;;;4.82;97.67
77450;BME280;66536;53.150;18.172;2024-03-06T02:13:59;101872.48;;;4.83;97.92
77450;BME280;66536;53.150;18.172;2024-03-06T02:16:25;101870.62;;;4.83;98.02
77450;BME280;66536;53.150;18.172;2024-03-06T02:18:54;101871.33;;;4.83;97.84
77450;BME280;66536;53.150;18.172;2024-03-06T02:21:21;101873.64;;;4.84;97.89
77450;BME280;66536;53.150;18.172;2024-03-06T02:23:47;101876.64;;;4.83;98.02
77450;BME280;66536;53.150;18.172;2024-03-06T02:26:14;101870.95;;;4.84;97.94
77450;BME280;66536;53.150;18.172;2024-03-06T02:28:48;101870.10;;;4.83;98.11
77450;BME280;66536;53.150;18.172;2024-03-06T02:31:16;101872.31;;;4.82;98.03
77450;BME280;66536;53.150;18.172;2024-03-06T02:33:44;101874.27;;;4.81;98.14
77450;BME280;66536;53.150;18.172;2024-03-06T02:36:11;101874.95;;;4.81;98.24
77450;BME280;66536;53.150;18.172;2024-03-06T02:38:37;101870.28;;;4.81;98.46
77450;BME280;66536;53.150;18.172;2024-03-06T02:41:03;101869.59;;;4.83;98.57
77450;BME280;66536;53.150;18.172;2024-03-06T02:43:29;101869.23;;;4.82;98.40
77450;BME280;66536;53.150;18.172;2024-03-06T02:45:55;101873.54;;;4.81;98.47
77450;BME280;66536;53.150;18.172;2024-03-06T02:48:21;101872.49;;;4.82;98.65
77450;BME280;66536;53.150;18.172;2024-03-06T02:50:47;101874.38;;;4.81;98.66
77450;BME280;66536;53.150;18.172;2024-03-06T02:53:14;101874.92;;;4.81;98.52
77450;BME280;66536;53.150;18.172;2024-03-06T02:55:40;101878.26;;;4.82;98.80
77450;BME280;66536;53.150;18.172;2024-03-06T02:58:06;101876.80;;;4.83;98.87
77450;BME280;66536;53.150;18.172;2024-03-06T03:00:32;101878.12;;;4.83;98.83
77450;BME280;66536;53.150;18.172;2024-03-06T03:02:58;101879.27;;;4.84;98.98
77450;BME280;66536;53.150;18.172;2024-03-06T03:05:24;101877.98;;;4.83;98.90
77450;BME280;66536;53.150;18.172;2024-03-06T03:07:51;101878.70;;;4.83;99.17
77450;BME280;66536;53.150;18.172;2024-03-06T03:10:17;101883.50;;;4.83;99.28
77450;BME280;66536;53.150;18.172;2024-03-06T03:12:43;101884.39;;;4.82;99.43
77450;BME280;66536;53.150;18.172;2024-03-06T03:15:09;101878.77;;;4.82;99.34
77450;BME280;66536;53.150;18.172;2024-03-06T03:17:36;101880.83;;;4.82;99.47
77450;BME280;66536;53.150;18.172;2024-03-06T03:20:03;101883.13;;;4.81;99.41
77450;BME280;66536;53.150;18.172;2024-03-06T03:22:37;101882.30;;;4.81;99.61
77450;BME280;66536;53.150;18.172;2024-03-06T03:25:07;101881.10;;;4.81;99.65
77450;BME280;66536;53.150;18.172;2024-03-06T03:27:33;101886.36;;;4.81;99.95
77450;BME280;66536;53.150;18.172;2024-03-06T03:30:00;101887.61;;;4.81;99.87
77450;BME280;66536;53.150;18.172;2024-03-06T03:32:26;101890.81;;;4.83;99.98
77450;BME280;66536;53.150;18.172;2024-03-06T03:34:53;101886.16;;;4.85;99.97
77450;BME280;66536;53.150;18.172;2024-03-06T03:37:19;101886.13;;;4.86;99.96
77450;BME280;66536;53.150;18.172;2024-03-06T03:39:45;101885.77;;;4.86;100.00
77450;BME280;66536;53.150;18.172;2024-03-06T03:42:14;101888.39;;;4.87;99.98
77450;BME280;66536;53.150;18.172;2024-03-06T03:44:40;101891.74;;;4.88;100.00
77450;BME280;66536;53.150;18.172;2024-03-06T03:47:06;101893.58;;;4.88;100.00
77450;BME280;66536;53.150;18.172;2024-03-06T03:49:32;101896.63;;;4.88;99.97
77450;BME280;66536;53.150;18.172;2024-03-06T03:51:58;101896.31;;;4.88;100.00
77450;BME280;66536;53.150;18.172;2024-03-06T03:54:24;101899.63;;;4.89;100.00
77450;BME280;66536;53.150;18.172;2024-03-06T03:56:50;101898.33;;;4.91;100.00
77450;BME280;66536;53.150;18.172;2024-03-06T03:59:16;101900.48;;;4.92;100.00
77450;BME280;66536;53.150;18.172;2024-03-06T04:01:45;101896.98;;;4.92;100.00
77450;BME280;66536;53.150;18.172;2024-03-06T04:04:11;101904.75;;;4.93;100.00
77450;BME280;66536;53.150;18.172;2024-03-06T04:06:38;101903.48;;;4.94;100.00
77450;BME280;66536;53.150;18.172;2024-03-06T04:09:04;101906.48;;;4.95;100.00
77450;BME280;66536;53.150;18.172;2024-03-06T04:11:31;101908.28;;;4.94;100.00
77450;BME280;66536;53.150;18.172;2024-03-06T04:13:59;101907.73;;;4.94;100.00
77450;BME280;66536;53.150;18.172;2024-03-06T04:16:25;101909.77;;;4.94;100.00
77450;BME280;66536;53.150;18.172;2024-03-06T04:18:51;101906.95;;;4.93;100.00
77450;BME280;66536;53.150;18.172;2024-03-06T04:21:17;101909.52;;;4.94;100.00
77450;BME280;66536;53.150;18.172;2024-03-06T04:23:44;101902.46;;;4.94;100.00
77450;BME280;66536;53.150;18.172;2024-03-06T04:26:10;101898.15;;;4.94;100.00
77450;BME280;66536;53.150;18.172;2024-03-06T04:28:36;101898.90;;;4.93;100.00
77450;BME280;66536;53.150;18.172;2024-03-06T04:31:02;101897.14;;;4.94;100.00
77450;BME280;66536;53.150;18.172;2024-03-06T04:33:28;101896.88;;;4.95;100.00
77450;BME280;66536;53.150;18.172;2024-03-06T04:35:55;101894.63;;;4.97;100.00
77450;BME280;66536;53.150;18.172;2024-03-06T04:38:21;101888.80;;;4.97;100.00
77450;BME280;66536;53.150;18.172;2024-03-06T04:40:47;101893.46;;;4.99;100.00
77450;BME280;66536;53.150;18.172;2024-03-06T04:43:13;101898.98;;;5.00;100.00
77450;BME280;66536;53.150;18.172;2024-03-06T04:45:39;101895.97;;;5.01;100.00
77450;BME280;66536;53.150;18.172;2024-03-06T04:48:06;101898.75;;;5.03;100.00
77450;BME280;66536;53.150;18.172;2024-03-06T04:50:32;101901.73;;;5.04;100.00
77450;BME280;66536;53.150;18.172;2024-03-06T04:52:58;101901.92;;;5.05;100.00
77450;BME280;66536;53.150;18.172;2024-03-06T04:55:24;101902.40;;;5.05;100.00
77450;BME280;66536;53.150;18.172;2024-03-06T04:57:52;101904.35;;;5.07;100.00
77450;BME280;66536;53.150;18.172;2024-03-06T05:00:19;101903.40;;;5.08;100.00
77450;BME280;66536;53.150;18.172;2024-03-06T05:02:45;101907.67;;;5.09;100.00
77450;BME280;66536;53.150;18.172;2024-03-06T05:05:11;101909.73;;;5.11;100.00
77450;BME280;66536;53.150;18.172;2024-03-06T05:07:37;101910.09;;;5.11;100.00
77450;BME280;66536;53.150;18.172;2024-03-06T05:10:04;101908.82;;;5.12;100.00
77450;BME280;66536;53.150;18.172;2024-03-06T05:12:33;101909.11;;;5.13;100.00
77450;BME280;66536;53.150;18.172;2024-03-06T05:15:00;101920.46;;;5.12;100.00
77450;BME280;66536;53.150;18.172;2024-03-06T05:17:26;101917.89;;;5.12;100.00
77450;BME280;66536;53.150;18.172;2024-03-06T05:19:53;101925.34;;;5.13;100.00
77450;BME280;66536;53.150;18.172;2024-03-06T05:22:20;101926.88;;;5.15;100.00
77450;BME280;66536;53.150;18.172;2024-03-06T05:24:46;101929.14;;;5.16;100.00
77450;BME280;66536;53.150;18.172;2024-03-06T05:27:13;101930.94;;;5.17;100.00
77450;BME280;66536;53.150;18.172;2024-03-06T05:29:43;101933.38;;;5.19;100.00
77450;BME280;66536;53.150;18.172;2024-03-06T05:32:09;101936.75;;;5.19;100.00
77450;BME280;66536;53.150;18.172;2024-03-06T05:34:35;101933.88;;;5.21;100.00
77450;BME280;66536;53.150;18.172;2024-03-06T05:37:02;101935.93;;;5.21;100.00
77450;BME280;66536;53.150;18.172;2024-03-06T05:39:30;101939.31;;;5.21;100.00
77450;BME280;66536;53.150;18.172;2024-03-06T05:42:01;101947.52;;;5.23;100.00
77450;BME280;66536;53.150;18.172;2024-03-06T05:44:31;101949.77;;;5.25;100.00
77450;BME280;66536;53.150;18.172;2024-03-06T05:46:58;101951.80;;;5.25;100.00
77450;BME280;66536;53.150;18.172;2024-03-06T05:49:24;101955.77;;;5.27;100.00
77450;BME280;66536;53.150;18.172;2024-03-06T05:51:51;101957.68;;;5.28;100.00
77450;BME280;66536;53.150;18.172;2024-03-06T05:54:19;101960.05;;;5.28;100.00
77450;BME280;66536;53.150;18.172;2024-03-06T05:56:48;101963.92;;;5.29;100.00
77450;BME280;66536;53.150;18.172;2024-03-06T05:59:14;101963.00;;;5.30;100.00
77450;BME280;66536;53.150;18.172;2024-03-06T06:01:41;101967.56;;;5.30;100.00
77450;BME280;66536;53.150;18.172;2024-03-06T06:04:08;101971.48;;;5.30;100.00
77450;BME280;66536;53.150;18.172;2024-03-06T06:06:35;101967.44;;;5.31;100.00
77450;BME280;66536;53.150;18.172;2024-03-06T06:09:01;101969.40;;;5.33;100.00
77450;BME280;66536;53.150;18.172;2024-03-06T06:11:31;101972.23;;;5.32;100.00
77450;BME280;66536;53.150;18.172;2024-03-06T06:13:58;101970.08;;;5.31;100.00
77450;BME280;66536;53.150;18.172;2024-03-06T06:16:24;101972.39;;;5.30;100.00
77450;BME280;66536;53.150;18.172;2024-03-06T06:18:50;101977.23;;;5.29;100.00
77450;BME280;66536;53.150;18.172;2024-03-06T06:21:16;101983.08;;;5.29;100.00
77450;BME280;66536;53.150;18.172;2024-03-06T06:23:42;101984.27;;;5.29;100.00
77450;BME280;66536;53.150;18.172;2024-03-06T06:26:09;101985.91;;;5.30;100.00
77450;BME280;66536;53.150;18.172;2024-03-06T06:28:36;101988.90;;;5.31;100.00
77450;BME280;66536;53.150;18.172;2024-03-06T06:31:04;101992.92;;;5.32;100.00
77450;BME280;66536;53.150;18.172;2024-03-06T06:33:30;101998.39;;;5.32;100.00
77450;BME280;66536;53.150;18.172;2024-03-06T06:35:56;101999.45;;;5.33;100.00
77450;BME280;66536;53.150;18.172;2024-03-06T06:38:22;102000.16;;;5.35;100.00
77450;BME280;66536;53.150;18.172;2024-03-06T06:40:48;102001.52;;;5.37;100.00
77450;BME280;66536;53.150;18.172;2024-03-06T06:43:14;102003.10;;;5.38;100.00
77450;BME280;66536;53.150;18.172;2024-03-06T06:45:41;102000.77;;;5.39;100.00
77450;BME280;66536;53.150;18.172;2024-03-06T06:48:07;102000.30;;;5.41;100.00
77450;BME280;66536;53.150;18.172;2024-03-06T06:50:35;101999.35;;;5.41;100.00
77450;BME280;66536;53.150;18.172;2024-03-06T06:53:01;102007.43;;;5.43;100.00
77450;BME280;66536;53.150;18.172;2024-03-06T06:55:27;101999.00;;;5.44;100.00
77450;BME280;66536;53.150;18.172;2024-03-06T06:57:54;101997.25;;;5.46;100.00
77450;BME280;66536;53.150;18.172;2024-03-06T07:00:20;102000.14;;;5.48;100.00
77450;BME280;66536;53.150;18.172;2024-03-06T07:02:51;102005.40;;;5.50;100.00
77450;BME280;66536;53.150;18.172;2024-03-06T07:05:18;102007.02;;;5.51;100.00
77450;BME280;66536;53.150;18.172;2024-03-06T07:07:44;102004.18;;;5.52;100.00
77450;BME280;66536;53.150;18.172;2024-03-06T07:10:10;102008.20;;;5.53;100.00
77450;BME280;66536;53.150;18.172;2024-03-06T07:12:36;102007.66;;;5.55;100.00
77450;BME280;66536;53.150;18.172;2024-03-06T07:15:03;102011.03;;;5.58;100.00
77450;BME280;66536;53.150;18.172;2024-03-06T07:17:31;102010.30;;;5.60;100.00
77450;BME280;66536;53.150;18.172;2024-03-06T07:19:57;102014.73;;;5.62;100.00
77450;BME280;66536;53.150;18.172;2024-03-06T07:22:23;102017.77;;;5.64;100.00
77450;BME280;66536;53.150;18.172;2024-03-06T07:24:49;102023.43;;;5.66;100.00
77450;BME280;66536;53.150;18.172;2024-03-06T07:27:15;102021.47;;;5.69;100.00
77450;BME280;66536;53.150;18.172;2024-03-06T07:29:42;102020.79;;;5.70;100.00
77450;BME280;66536;53.150;18.172;2024-03-06T07:32:09;102020.25;;;5.73;100.00
77450;BME280;66536;53.150;18.172;2024-03-06T07:34:35;102024.83;;;5.75;100.00
77450;BME280;66536;53.150;18.172;2024-03-06T07:37:02;102026.77;;;5.78;100.00
77450;BME280;66536;53.150;18.172;2024-03-06T07:39:28;102029.21;;;5.79;100.00
77450;BME280;66536;53.150;18.172;2024-03-06T07:41:54;102036.67;;;5.80;100.00
77450;BME280;66536;53.150;18.172;2024-03-06T07:44:20;102039.30;;;5.81;100.00
77450;BME280;66536;53.150;18.172;2024-03-06T07:46:46;102046.91;;;5.82;100.00
77450;BME280;66536;53.150;18.172;2024-03-06T07:49:13;102043.85;;;5.84;100.00
77450;BME280;66536;53.150;18.172;2024-03-06T07:51:39;102045.68;;;5.86;100.00
77450;BME280;66536;53.150;18.172;2024-03-06T07:54:06;102051.98;;;5.89;100.00
77450;BME280;66536;53.150;18.172;2024-03-06T07:56:33;102053.67;;;5.91;100.00
77450;BME280;66536;53.150;18.172;2024-03-06T07:59:00;102052.36;;;5.92;100.00
77450;BME280;66536;53.150;18.172;2024-03-06T08:01:27;102054.98;;;5.93;100.00
77450;BME280;66536;53.150;18.172;2024-03-06T08:03:54;102054.24;;;5.95;100.00
77450;BME280;66536;53.150;18.172;2024-03-06T08:06:25;102057.97;;;5.98;100.00
77450;BME280;66536;53.150;18.172;2024-03-06T08:08:52;102060.77;;;5.99;100.00
77450;BME280;66536;53.150;18.172;2024-03-06T08:11:18;102065.82;;;6.00;100.00
77450;BME280;66536;53.150;18.172;2024-03-06T08:13:48;102065.80;;;6.00;100.00
77450;BME280;66536;53.150;18.172;2024-03-06T08:16:15;102071.72;;;6.01;99.99
77450;BME280;66536;53.150;18.172;2024-03-06T08:18:43;102069.51;;;6.01;99.99
77450;BME280;66536;53.150;18.172;2024-03-06T08:21:09;102074.28;;;6.03;99.71
77450;BME280;66536;53.150;18.172;2024-03-06T08:23:36;102074.48;;;6.04;99.55
77450;BME280;66536;53.150;18.172;2024-03-06T08:26:02;102076.02;;;6.06;99.46
77450;BME280;66536;53.150;18.172;2024-03-06T08:28:30;102076.88;;;6.08;99.16
77450;BME280;66536;53.150;18.172;2024-03-06T08:30:56;102081.81;;;6.10;98.95
77450;BME280;66536;53.150;18.172;2024-03-06T08:33:22;102081.30;;;6.12;98.69
77450;BME280;66536;53.150;18.172;2024-03-06T08:35:50;102080.36;;;6.15;98.22
77450;BME280;66536;53.150;18.172;2024-03-06T08:38:16;102079.05;;;6.18;97.76
77450;BME280;66536;53.150;18.172;2024-03-06T08:40:43;102084.58;;;6.21;97.66
77450;BME280;66536;53.150;18.172;2024-03-06T08:43:12;102084.86;;;6.27;97.47
77450;BME280;66536;53.150;18.172;2024-03-06T08:45:41;102085.78;;;6.33;97.46
77450;BME280;66536;53.150;18.172;2024-03-06T08:48:08;102086.14;;;6.40;97.16
77450;BME280;66536;53.150;18.172;2024-03-06T08:50:35;102088.46;;;6.47;96.93
77450;BME280;66536;53.150;18.172;2024-03-06T08:53:01;102087.91;;;6.54;96.80
77450;BME280;66536;53.150;18.172;2024-03-06T08:55:28;102089.33;;;6.57;96.20
77450;BME280;66536;53.150;18.172;2024-03-06T08:57:54;102086.67;;;6.62;96.20
77450;BME280;66536;53.150;18.172;2024-03-06T09:00:21;102082.63;;;6.72;96.03
77450;BME280;66536;53.150;18.172;2024-03-06T09:02:47;102083.21;;;6.85;94.83
77450;BME280;66536;53.150;18.172;2024-03-06T09:05:14;102086.34;;;7.04;94.35
77450;BME280;66536;53.150;18.172;2024-03-06T09:07:40;102085.52;;;7.28;94.07
77450;BME280;66536;53.150;18.172;2024-03-06T09:10:08;102082.98;;;7.50;93.52
77450;BME280;66536;53.150;18.172;2024-03-06T09:12:35;102081.61;;;7.70;92.33
77450;BME280;66536;53.150;18.172;2024-03-06T09:15:03;102080.85;;;7.89;90.84
77450;BME280;66536;53.150;18.172;2024-03-06T09:17:29;102083.27;;;8.09;90.56
77450;BME280;66536;53.150;18.172;2024-03-06T09:19:56;102087.86;;;8.23;89.63
77450;BME280;66536;53.150;18.172;2024-03-06T09:22:22;102085.05;;;8.36;90.22
77450;BME280;66536;53.150;18.172;2024-03-06T09:24:49;102086.14;;;8.48;89.73
77450;BME280;66536;53.150;18.172;2024-03-06T09:27:15;102088.06;;;8.54;89.61
77450;BME280;66536;53.150;18.172;2024-03-06T09:29:43;102091.23;;;8.57;89.12
77450;BME280;66536;53.150;18.172;2024-03-06T09:32:09;102087.30;;;8.58;89.22
77450;BME280;66536;53.150;18.172;2024-03-06T09:34:35;102084.46;;;8.63;89.42
77450;BME280;66536;53.150;18.172;2024-03-06T09:37:02;102085.24;;;8.63;88.68
77450;BME280;66536;53.150;18.172;2024-03-06T09:39:31;102091.37;;;8.59;88.14
77450;BME280;66536;53.150;18.172;2024-03-06T09:42:00;102093.17;;;8.60;88.57
77450;BME280;66536;53.150;18.172;2024-03-06T09:44:27;102091.59;;;8.63;86.79
77450;BME280;66536;53.150;18.172;2024-03-06T09:46:54;102090.21;;;8.67;87.10
77450;BME280;66536;53.150;18.172;2024-03-06T09:49:22;102084.23;;;8.78;86.58
77450;BME280;66536;53.150;18.172;2024-03-06T09:51:49;102089.23;;;8.82;85.17
77450;BME280;66536;53.150;18.172;2024-03-06T09:54:17;102092.01;;;8.82;83.92
77450;BME280;66536;53.150;18.172;2024-03-06T09:56:44;102091.84;;;8.81;84.84
77450;BME280;66536;53.150;18.172;2024-03-06T09:59:11;102095.76;;;8.89;85.07
77450;BME280;66536;53.150;18.172;2024-03-06T10:01:40;102101.84;;;9.08;84.57
77450;BME280;66536;53.150;18.172;2024-03-06T10:04:23;102104.60;;;9.21;84.56
77450;BME280;66536;53.150;18.172;2024-03-06T10:06:54;102103.80;;;9.25;83.10
77450;BME280;66536;53.150;18.172;2024-03-06T10:09:21;102102.23;;;9.17;81.99
77450;BME280;66536;53.150;18.172;2024-03-06T10:11:48;102108.88;;;9.13;82.73
77450;BME280;66536;53.150;18.172;2024-03-06T10:14:15;102111.84;;;9.09;82.76
77450;BME280;66536;53.150;18.172;2024-03-06T10:16:55;102111.46;;;9.05;83.36
77450;BME280;66536;53.150;18.172;2024-03-06T10:19:23;102112.16;;;8.96;82.72
77450;BME280;66536;53.150;18.172;2024-03-06T10:21:50;102114.58;;;8.89;82.71
77450;BME280;66536;53.150;18.172;2024-03-06T10:24:20;102118.80;;;8.84;82.36
77450;BME280;66536;53.150;18.172;2024-03-06T10:26:47;102115.16;;;8.85;82.66
77450;BME280;66536;53.150;18.172;2024-03-06T10:29:16;102115.81;;;8.83;82.64
77450;BME280;66536;53.150;18.172;2024-03-06T10:31:55;102121.65;;;8.75;83.44
77450;BME280;66536;53.150;18.172;2024-03-06T10:34:25;102121.84;;;8.72;83.51
77450;BME280;66536;53.150;18.172;2024-03-06T10:36:55;102122.00;;;8.75;83.66
77450;BME280;66536;53.150;18.172;2024-03-06T10:39:22;102121.55;;;8.70;82.69
77450;BME280;66536;53.150;18.172;2024-03-06T10:41:53;102120.48;;;8.65;83.68
77450;BME280;66536;53.150;18.172;2024-03-06T10:44:23;102117.73;;;8.65;82.66
77450;BME280;66536;53.150;18.172;2024-03-06T10:47:01;102119.94;;;8.57;82.60
77450;BME280;66536;53.150;18.172;2024-03-06T10:49:29;102124.84;;;8.45;82.73
77450;BME280;66536;53.150;18.172;2024-03-06T10:51:58;102124.42;;;8.37;83.53
77450;BME280;66536;53.150;18.172;2024-03-06T10:54:29;102127.29;;;8.31;82.52
77450;BME280;66536;53.150;18.172;2024-03-06T10:56:56;102126.68;;;8.27;83.54
77450;BME280;66536;53.150;18.172;2024-03-06T10:59:25;102127.70;;;8.31;83.71
77450;BME280;66536;53.150;18.172;2024-03-06T11:01:55;102131.16;;;8.34;83.01
77450;BME280;66536;53.150;18.172;2024-03-06T11:04:25;102128.11;;;8.35;82.59
77450;BME280;66536;53.150;18.172;2024-03-06T11:06:56;102133.08;;;8.32;82.83
77450;BME280;66536;53.150;18.172;2024-03-06T11:09:26;102130.86;;;8.35;82.96
77450;BME280;66536;53.150;18.172;2024-03-06T11:11:54;102129.08;;;8.32;81.73
77450;BME280;66536;53.150;18.172;2024-03-06T11:14:22;102136.13;;;8.27;81.78
77450;BME280;66536;53.150;18.172;2024-03-06T11:16:59;102133.02;;;8.26;82.12
77450;BME280;66536;53.150;18.172;2024-03-06T11:19:26;102140.23;;;8.22;82.16
77450;BME280;66536;53.150;18.172;2024-03-06T11:21:53;102136.30;;;8.21;81.62
77450;BME280;66536;53.150;18.172;2024-03-06T11:24:21;102139.80;;;8.20;81.43
77450;BME280;66536;53.150;18.172;2024-03-06T11:26:49;102142.90;;;8.20;81.56
77450;BME280;66536;53.150;18.172;2024-03-06T11:29:18;102142.20;;;8.22;80.77
77450;BME280;66536;53.150;18.172;2024-03-06T11:34:36;102142.34;;;8.36;80.89
77450;BME280;66536;53.150;18.172;2024-03-06T11:37:04;102143.15;;;8.51;81.08
77450;BME280;66536;53.150;18.172;2024-03-06T11:39:35;102142.31;;;8.66;80.99
77450;BME280;66536;53.150;18.172;2024-03-06T11:42:03;102143.60;;;8.82;80.61
77450;BME280;66536;53.150;18.172;2024-03-06T11:44:32;102147.09;;;8.94;79.85
77450;BME280;66536;53.150;18.172;2024-03-06T11:46:59;102143.89;;;9.01;79.84
77450;BME280;66536;53.150;18.172;2024-03-06T11:49:28;102141.29;;;9.04;79.22
77450;BME280;66536;53.150;18.172;2024-03-06T11:51:56;102147.20;;;9.05;78.39
77450;BME280;66536;53.150;18.172;2024-03-06T11:54:24;102145.92;;;9.01;78.55
77450;BME280;66536;53.150;18.172;2024-03-06T11:56:55;102148.92;;;8.99;78.60
77450;BME280;66536;53.150;18.172;2024-03-06T11:59:24;102149.69;;;8.98;78.47
77450;BME280;66536;53.150;18.172;2024-03-06T12:01:51;102151.70;;;8.99;77.60
77450;BME280;66536;53.150;18.172;2024-03-06T12:04:19;102148.29;;;8.98;78.22
77450;BME280;66536;53.150;18.172;2024-03-06T12:06:46;102150.13;;;8.99;78.71
77450;BME280;66536;53.150;18.172;2024-03-06T12:09:15;102153.67;;;9.00;78.55
77450;BME280;66536;53.150;18.172;2024-03-06T12:11:41;102155.90;;;9.01;78.43
77450;BME280;66536;53.150;18.172;2024-03-06T12:14:18;102156.33;;;9.04;77.94
77450;BME280;66536;53.150;18.172;2024-03-06T12:16:55;102155.41;;;8.98;77.84
77450;BME280;66536;53.150;18.172;2024-03-06T12:19:22;102158.29;;;8.93;78.07
77450;BME280;66536;53.150;18.172;2024-03-06T12:21:49;102153.47;;;8.90;77.78
77450;BME280;66536;53.150;18.172;2024-03-06T12:24:16;102153.79;;;8.89;77.68
77450;BME280;66536;53.150;18.172;2024-03-06T12:26:46;102151.53;;;8.89;77.55
77450;BME280;66536;53.150;18.172;2024-03-06T12:29:18;102152.16;;;8.88;76.86
77450;BME280;66536;53.150;18.172;2024-03-06T12:31:45;102153.89;;;8.85;76.59
77450;BME280;66536;53.150;18.172;2024-03-06T12:34:14;102155.69;;;8.87;77.23
77450;BME280;66536;53.150;18.172;2024-03-06T12:36:43;102155.34;;;8.95;77.07
77450;BME280;66536;53.150;18.172;2024-03-06T12:39:09;102160.17;;;9.02;76.64
77450;BME280;66536;53.150;18.172;2024-03-06T12:41:47;102155.14;;;9.00;76.01
77450;BME280;66536;53.150;18.172;2024-03-06T12:44:13;102158.69;;;8.98;76.03
77450;BME280;66536;53.150;18.172;2024-03-06T12:46:41;102158.55;;;8.96;75.69
77450;BME280;66536;53.150;18.172;2024-03-06T12:49:07;102159.73;;;8.94;74.73